sensor_id;sensor_type;location;lat;lon;timestamp;P1;durP1;ratioP1;P2;durP2;ratioP2
17592;SDS011;8915;51.760;14.300;2023-06-04T00:01:34;12.57;;;7.27;;
17592;SDS011;8915;51.760;14.300;2023-06-04T00:04:01;11.27;;;6.87;;
17592;SDS011;8915;51.760;14.300;2023-06-04T00:06:28;7.97;;;4.77;;
17592;SDS011;8915;51.760;14.300;2023-06-04T00:08:55;9.90;;;5.87;;
17592;SDS011;8915;51.760;14.300;2023-06-04T00:11:21;10.33;;;4.93;;
17592;SDS011;8915;51.760;14.300;2023-06-04T00:13:48;9.20;;;5.37;;
17592;SDS011;8915;51.760;14.300;2023-06-04T00:16:14;7.30;;;5.03;;
17592;SDS011;8915;51.760;14.300;2023-06-04T00:18:43;8.63;;;4.60;;
17592;SDS011;8915;51.760;14.300;2023-06-04T00:21:12;6.43;;;4.73;;
17592;SDS011;8915;51.760;14.300;2023-06-04T00:23:40;8.40;;;5.27;;
17592;SDS011;8915;51.760;14.300;2023-06-04T00:26:06;7.33;;;4.83;;
17592;SDS011;8915;51.760;14.300;2023-06-04T00:28:37;7.83;;;4.73;;
17592;SDS011;8915;51.760;14.300;2023-06-04T00:31:04;6.43;;;4.70;;
17592;SDS011;8915;51.760;14.300;2023-06-04T00:33:31;9.17;;;4.20;;
17592;SDS011;8915;51.760;14.300;2023-06-04T00:36:00;5.40;;;4.17;;
17592;SDS011;8915;51.760;14.300;2023-06-04T00:38:26;7.83;;;5.07;;
17592;SDS011;8915;51.760;14.300;2023-06-04T00:40:54;9.13;;;4.70;;
17592;SDS011;8915;51.760;14.300;2023-06-04T00:43:23;7.03;;;4.60;;
17592;SDS011;8915;51.760;14.300;2023-06-04T00:46:06;8.10;;;5.27;;
17592;SDS011;8915;51.760;14.300;2023-06-04T00:48:34;6.67;;;4.37;;
17592;SDS011;8915;51.760;14.300;2023-06-04T00:51:02;6.47;;;4.20;;
17592;SDS011;8915;51.760;14.300;2023-06-04T00:53:29;7.13;;;4.90;;
17592;SDS011;8915;51.760;14.300;2023-06-04T00:56:00;9.73;;;4.17;;
17592;SDS011;8915;51.760;14.300;2023-06-04T00:58:26;5.30;;;3.33;;
17592;SDS011;8915;51.760;14.300;2023-06-04T01:00:53;6.70;;;3.67;;
17592;SDS011;8915;51.760;14.300;2023-06-04T01:03:27;7.20;;;3.40;;
17592;SDS011;8915;51.760;14.300;2023-06-04T01:06:00;4.97;;;3.03;;
17592;SDS011;8915;51.760;14.300;2023-06-04T01:08:39;6.53;;;3.10;;
17592;SDS011;8915;51.760;14.300;2023-06-04T01:11:09;6.33;;;3.23;;
17592;SDS011;8915;51.760;14.300;2023-06-04T01:13:36;6.90;;;3.33;;
17592;SDS011;8915;51.760;14.300;2023-06-04T01:16:02;5.17;;;2.70;;
17592;SDS011;8915;51.760;14.300;2023-06-04T01:18:29;3.90;;;2.30;;
17592;SDS011;8915;51.760;14.300;2023-06-04T01:21:02;5.80;;;2.47;;
17592;SDS011;8915;51.760;14.300;2023-06-04T01:23:34;5.03;;;2.60;;
17592;SDS011;8915;51.760;14.300;2023-06-04T01:26:08;3.93;;;2.00;;
17592;SDS011;8915;51.760;14.300;2023-06-04T01:28:38;2.37;;;1.90;;
17592;SDS011;8915;51.760;14.300;2023-06-04T01:31:07;2.83;;;2.17;;
17592;SDS011;8915;51.760;14.300;2023-06-04T01:33:34;4.03;;;2.20;;
17592;SDS011;8915;51.760;14.300;2023-06-04T01:36:01;2.80;;;2.27;;
17592;SDS011;8915;51.760;14.300;2023-06-04T01:38:28;3.70;;;1.87;;
17592;SDS011;8915;51.760;14.300;2023-06-04T01:40:54;6.77;;;2.27;;
17592;SDS011;8915;51.760;14.300;2023-06-04T01:43:27;5.70;;;2.13;;
17592;SDS011;8915;51.760;14.300;2023-06-04T01:45:53;4.23;;;1.80;;
17592;SDS011;8915;51.760;14.300;2023-06-04T01:48:22;5.80;;;3.40;;
17592;SDS011;8915;51.760;14.300;2023-06-04T01:50:51;3.73;;;2.27;;
17592;SDS011;8915;51.760;14.300;2023-06-04T01:53:20;5.53;;;2.50;;
17592;SDS011;8915;51.760;14.300;2023-06-04T01:55:46;5.17;;;2.40;;
17592;SDS011;8915;51.760;14.300;2023-06-04T01:58:14;3.30;;;2.37;;
17592;SDS011;8915;51.760;14.300;2023-06-04T02:00:44;5.10;;;2.90;;
17592;SDS011;8915;51.760;14.300;2023-06-04T02:03:10;4.33;;;2.43;;
17592;SDS011;8915;51.760;14.300;2023-06-04T02:05:40;4.63;;;2.03;;
17592;SDS011;8915;51.760;14.300;2023-06-04T02:08:09;2.67;;;2.20;;
17592;SDS011;8915;51.760;14.300;2023-06-04T02:10:36;4.23;;;2.17;;
17592;SDS011;8915;51.760;14.300;2023-06-04T02:13:02;3.33;;;2.30;;
17592;SDS011;8915;51.760;14.300;2023-06-04T02:15:30;4.13;;;2.40;;
17592;SDS011;8915;51.760;14.300;2023-06-04T02:17:59;4.83;;;2.23;;
17592;SDS011;8915;51.760;14.300;2023-06-04T02:20:41;3.13;;;2.27;;
17592;SDS011;8915;51.760;14.300;2023-06-04T02:23:07;3.23;;;2.17;;
17592;SDS011;8915;51.760;14.300;2023-06-04T02:25:34;4.47;;;2.27;;
17592;SDS011;8915;51.760;14.300;2023-06-04T02:28:00;3.17;;;1.97;;
17592;SDS011;8915;51.760;14.300;2023-06-04T02:30:26;3.10;;;1.80;;
17592;SDS011;8915;51.760;14.300;2023-06-04T02:32:55;3.47;;;2.00;;
17592;SDS011;8915;51.760;14.300;2023-06-04T02:35:27;5.30;;;2.17;;
17592;SDS011;8915;51.760;14.300;2023-06-04T02:37:54;3.90;;;2.20;;
17592;SDS011;8915;51.760;14.300;2023-06-04T02:40:23;7.07;;;2.20;;
17592;SDS011;8915;51.760;14.300;2023-06-04T02:42:49;3.07;;;1.80;;
17592;SDS011;8915;51.760;14.300;2023-06-04T02:45:15;5.17;;;2.13;;
17592;SDS011;8915;51.760;14.300;2023-06-04T02:47:42;5.60;;;2.30;;
17592;SDS011;8915;51.760;14.300;2023-06-04T02:50:09;2.93;;;1.93;;
17592;SDS011;8915;51.760;14.300;2023-06-04T02:52:37;4.00;;;2.07;;
17592;SDS011;8915;51.760;14.300;2023-06-04T02:55:05;3.10;;;2.10;;
17592;SDS011;8915;51.760;14.300;2023-06-04T02:57:35;2.97;;;1.83;;
17592;SDS011;8915;51.760;14.300;2023-06-04T03:00:02;3.90;;;2.10;;
17592;SDS011;8915;51.760;14.300;2023-06-04T03:02:36;8.50;;;2.63;;
17592;SDS011;8915;51.760;14.300;2023-06-04T03:05:03;4.90;;;2.03;;
17592;SDS011;8915;51.760;14.300;2023-06-04T03:07:30;4.90;;;1.70;;
17592;SDS011;8915;51.760;14.300;2023-06-04T03:09:58;3.47;;;2.10;;
17592;SDS011;8915;51.760;14.300;2023-06-04T03:12:25;4.07;;;2.20;;
17592;SDS011;8915;51.760;14.300;2023-06-04T03:14:51;4.40;;;2.30;;
17592;SDS011;8915;51.760;14.300;2023-06-04T03:17:18;4.83;;;2.00;;
17592;SDS011;8915;51.760;14.300;2023-06-04T03:19:46;5.70;;;2.53;;
17592;SDS011;8915;51.760;14.300;2023-06-04T03:22:13;2.80;;;1.77;;
17592;SDS011;8915;51.760;14.300;2023-06-04T03:24:39;11.13;;;2.03;;
17592;SDS011;8915;51.760;14.300;2023-06-04T03:27:08;3.33;;;2.00;;
17592;SDS011;8915;51.760;14.300;2023-06-04T03:29:37;3.93;;;2.07;;
17592;SDS011;8915;51.760;14.300;2023-06-04T03:32:05;9.23;;;2.00;;
17592;SDS011;8915;51.760;14.300;2023-06-04T03:34:33;3.30;;;1.87;;
17592;SDS011;8915;51.760;14.300;2023-06-04T03:36:59;3.70;;;1.80;;
17592;SDS011;8915;51.760;14.300;2023-06-04T03:39:29;2.10;;;1.83;;
17592;SDS011;8915;51.760;14.300;2023-06-04T03:41:57;3.23;;;1.50;;
17592;SDS011;8915;51.760;14.300;2023-06-04T03:44:25;2.10;;;1.60;;
17592;SDS011;8915;51.760;14.300;2023-06-04T03:46:52;4.33;;;2.20;;
17592;SDS011;8915;51.760;14.300;2023-06-04T03:49:19;3.53;;;1.60;;
17592;SDS011;8915;51.760;14.300;2023-06-04T03:51:48;5.40;;;2.03;;
17592;SDS011;8915;51.760;14.300;2023-06-04T03:54:15;2.63;;;2.10;;
17592;SDS011;8915;51.760;14.300;2023-06-04T03:56:44;3.07;;;1.57;;
17592;SDS011;8915;51.760;14.300;2023-06-04T03:59:11;3.47;;;1.90;;
17592;SDS011;8915;51.760;14.300;2023-06-04T04:01:39;3.40;;;1.90;;
17592;SDS011;8915;51.760;14.300;2023-06-04T04:04:09;3.97;;;1.50;;
17592;SDS011;8915;51.760;14.300;2023-06-04T04:06:38;3.60;;;1.90;;
17592;SDS011;8915;51.760;14.300;2023-06-04T04:09:05;3.50;;;1.90;;
17592;SDS011;8915;51.760;14.300;2023-06-04T04:11:33;2.00;;;1.67;;
17592;SDS011;8915;51.760;14.300;2023-06-04T04:14:00;3.37;;;1.80;;
17592;SDS011;8915;51.760;14.300;2023-06-04T04:16:27;3.30;;;1.87;;
17592;SDS011;8915;51.760;14.300;2023-06-04T04:18:57;5.03;;;2.20;;
17592;SDS011;8915;51.760;14.300;2023-06-04T04:21:24;3.77;;;2.60;;
17592;SDS011;8915;51.760;14.300;2023-06-04T04:23:51;3.53;;;1.93;;
17592;SDS011;8915;51.760;14.300;2023-06-04T04:26:19;2.20;;;1.80;;
17592;SDS011;8915;51.760;14.300;2023-06-04T04:28:50;4.20;;;1.80;;
17592;SDS011;8915;51.760;14.300;2023-06-04T04:31:17;2.63;;;1.70;;
17592;SDS011;8915;51.760;14.300;2023-06-04T04:33:44;2.83;;;1.90;;
17592;SDS011;8915;51.760;14.300;2023-06-04T04:36:16;1.60;;;1.50;;
17592;SDS011;8915;51.760;14.300;2023-06-04T04:38:46;1.93;;;1.70;;
17592;SDS011;8915;51.760;14.300;2023-06-04T04:41:20;3.03;;;1.90;;
17592;SDS011;8915;51.760;14.300;2023-06-04T04:43:47;3.43;;;1.70;;
17592;SDS011;8915;51.760;14.300;2023-06-04T04:46:19;3.17;;;1.90;;
17592;SDS011;8915;51.760;14.300;2023-06-04T04:48:48;2.00;;;1.80;;
17592;SDS011;8915;51.760;14.300;2023-06-04T04:51:17;3.90;;;1.90;;
17592;SDS011;8915;51.760;14.300;2023-06-04T04:53:44;5.07;;;2.17;;
17592;SDS011;8915;51.760;14.300;2023-06-04T04:56:18;2.50;;;2.00;;
17592;SDS011;8915;51.760;14.300;2023-06-04T04:58:48;4.47;;;2.03;;
17592;SDS011;8915;51.760;14.300;2023-06-04T05:01:17;3.73;;;1.87;;
17592;SDS011;8915;51.760;14.300;2023-06-04T05:03:44;4.23;;;1.80;;
17592;SDS011;8915;51.760;14.300;2023-06-04T05:06:15;2.87;;;1.80;;
17592;SDS011;8915;51.760;14.300;2023-06-04T05:08:44;2.07;;;1.57;;
17592;SDS011;8915;51.760;14.300;2023-06-04T05:11:12;3.40;;;1.80;;
17592;SDS011;8915;51.760;14.300;2023-06-04T05:13:40;3.07;;;1.90;;
17592;SDS011;8915;51.760;14.300;2023-06-04T05:16:08;2.73;;;1.90;;
17592;SDS011;8915;51.760;14.300;2023-06-04T05:18:37;5.03;;;2.03;;
17592;SDS011;8915;51.760;14.300;2023-06-04T05:21:06;5.93;;;1.87;;
17592;SDS011;8915;51.760;14.300;2023-06-04T05:23:38;2.63;;;2.00;;
17592;SDS011;8915;51.760;14.300;2023-06-04T05:26:07;2.03;;;1.70;;
17592;SDS011;8915;51.760;14.300;2023-06-04T05:28:34;2.20;;;1.90;;
17592;SDS011;8915;51.760;14.300;2023-06-04T05:31:11;4.50;;;1.83;;
17592;SDS011;8915;51.760;14.300;2023-06-04T05:33:38;6.07;;;1.73;;
17592;SDS011;8915;51.760;14.300;2023-06-04T05:36:09;4.03;;;1.80;;
17592;SDS011;8915;51.760;14.300;2023-06-04T05:38:43;4.77;;;2.47;;
17592;SDS011;8915;51.760;14.300;2023-06-04T05:41:13;5.83;;;2.20;;
17592;SDS011;8915;51.760;14.300;2023-06-04T05:43:41;2.20;;;1.80;;
17592;SDS011;8915;51.760;14.300;2023-06-04T05:46:10;1.90;;;1.70;;
17592;SDS011;8915;51.760;14.300;2023-06-04T05:48:41;6.10;;;2.23;;
17592;SDS011;8915;51.760;14.300;2023-06-04T05:51:07;4.93;;;2.43;;
17592;SDS011;8915;51.760;14.300;2023-06-04T05:53:35;4.90;;;2.27;;
17592;SDS011;8915;51.760;14.300;2023-06-04T05:56:02;3.70;;;1.80;;
17592;SDS011;8915;51.760;14.300;2023-06-04T05:58:32;3.50;;;1.60;;
17592;SDS011;8915;51.760;14.300;2023-06-04T06:00:59;2.40;;;1.73;;
17592;SDS011;8915;51.760;14.300;2023-06-04T06:03:26;5.57;;;1.80;;
17592;SDS011;8915;51.760;14.300;2023-06-04T06:05:56;1.63;;;1.43;;
17592;SDS011;8915;51.760;14.300;2023-06-04T06:08:23;3.17;;;2.00;;
17592;SDS011;8915;51.760;14.300;2023-06-04T06:10:50;4.47;;;1.60;;
17592;SDS011;8915;51.760;14.300;2023-06-04T06:13:17;2.47;;;1.77;;
17592;SDS011;8915;51.760;14.300;2023-06-04T06:15:45;4.37;;;1.60;;
17592;SDS011;8915;51.760;14.300;2023-06-04T06:18:12;4.33;;;1.40;;
17592;SDS011;8915;51.760;14.300;2023-06-04T06:20:38;2.70;;;1.50;;
17592;SDS011;8915;51.760;14.300;2023-06-04T06:23:07;2.37;;;1.60;;
17592;SDS011;8915;51.760;14.300;2023-06-04T06:25:37;1.90;;;1.30;;
17592;SDS011;8915;51.760;14.300;2023-06-04T06:28:10;2.93;;;1.17;;
17592;SDS011;8915;51.760;14.300;2023-06-04T06:30:36;2.13;;;1.27;;
17592;SDS011;8915;51.760;14.300;2023-06-04T06:33:04;2.43;;;1.37;;
17592;SDS011;8915;51.760;14.300;2023-06-04T06:35:31;3.20;;;1.33;;
17592;SDS011;8915;51.760;14.300;2023-06-04T06:37:58;3.47;;;1.33;;
17592;SDS011;8915;51.760;14.300;2023-06-04T06:40:24;4.97;;;1.43;;
17592;SDS011;8915;51.760;14.300;2023-06-04T06:42:50;2.03;;;1.50;;
17592;SDS011;8915;51.760;14.300;2023-06-04T06:45:17;5.27;;;1.67;;
17592;SDS011;8915;51.760;14.300;2023-06-04T06:47:44;1.57;;;1.20;;
17592;SDS011;8915;51.760;14.300;2023-06-04T06:50:11;3.60;;;1.20;;
17592;SDS011;8915;51.760;14.300;2023-06-04T06:52:38;2.07;;;1.20;;
17592;SDS011;8915;51.760;14.300;2023-06-04T06:55:04;2.33;;;1.17;;
17592;SDS011;8915;51.760;14.300;2023-06-04T06:57:31;3.80;;;1.40;;
17592;SDS011;8915;51.760;14.300;2023-06-04T06:59:59;1.87;;;1.23;;
17592;SDS011;8915;51.760;14.300;2023-06-04T07:02:25;3.13;;;1.30;;
17592;SDS011;8915;51.760;14.300;2023-06-04T07:04:51;4.43;;;1.30;;
17592;SDS011;8915;51.760;14.300;2023-06-04T07:07:19;2.97;;;1.07;;
17592;SDS011;8915;51.760;14.300;2023-06-04T07:09:45;2.80;;;1.17;;
17592;SDS011;8915;51.760;14.300;2023-06-04T07:12:12;3.33;;;1.50;;
17592;SDS011;8915;51.760;14.300;2023-06-04T07:14:38;1.97;;;1.40;;
17592;SDS011;8915;51.760;14.300;2023-06-04T07:17:05;2.43;;;1.20;;
17592;SDS011;8915;51.760;14.300;2023-06-04T07:19:31;3.10;;;1.40;;
17592;SDS011;8915;51.760;14.300;2023-06-04T07:21:57;3.17;;;1.23;;
17592;SDS011;8915;51.760;14.300;2023-06-04T07:24:25;2.33;;;1.00;;
17592;SDS011;8915;51.760;14.300;2023-06-04T07:26:51;1.90;;;1.20;;
17592;SDS011;8915;51.760;14.300;2023-06-04T07:29:18;2.67;;;1.00;;
17592;SDS011;8915;51.760;14.300;2023-06-04T07:31:45;1.43;;;1.20;;
17592;SDS011;8915;51.760;14.300;2023-06-04T07:34:11;1.30;;;1.10;;
17592;SDS011;8915;51.760;14.300;2023-06-04T07:36:37;1.70;;;1.20;;
17592;SDS011;8915;51.760;14.300;2023-06-04T07:39:04;4.00;;;1.30;;
17592;SDS011;8915;51.760;14.300;2023-06-04T07:41:31;2.03;;;1.10;;
17592;SDS011;8915;51.760;14.300;2023-06-04T07:43:58;2.13;;;1.30;;
17592;SDS011;8915;51.760;14.300;2023-06-04T07:46:25;1.70;;;1.20;;
17592;SDS011;8915;51.760;14.300;2023-06-04T07:48:51;1.03;;;0.90;;
17592;SDS011;8915;51.760;14.300;2023-06-04T07:51:17;1.13;;;1.00;;
17592;SDS011;8915;51.760;14.300;2023-06-04T07:53:44;1.10;;;1.00;;
17592;SDS011;8915;51.760;14.300;2023-06-04T07:56:10;2.03;;;1.40;;
17592;SDS011;8915;51.760;14.300;2023-06-04T07:58:38;1.73;;;1.20;;
17592;SDS011;8915;51.760;14.300;2023-06-04T08:01:05;1.93;;;0.90;;
17592;SDS011;8915;51.760;14.300;2023-06-04T08:03:32;3.53;;;1.07;;
17592;SDS011;8915;51.760;14.300;2023-06-04T08:05:58;3.23;;;1.00;;
17592;SDS011;8915;51.760;14.300;2023-06-04T08:08:25;0.90;;;0.67;;
17592;SDS011;8915;51.760;14.300;2023-06-04T08:10:51;1.07;;;0.90;;
17592;SDS011;8915;51.760;14.300;2023-06-04T08:13:18;1.60;;;0.97;;
17592;SDS011;8915;51.760;14.300;2023-06-04T08:15:47;2.03;;;0.87;;
17592;SDS011;8915;51.760;14.300;2023-06-04T08:18:13;1.13;;;0.83;;
17592;SDS011;8915;51.760;14.300;2023-06-04T08:20:39;1.10;;;1.00;;
17592;SDS011;8915;51.760;14.300;2023-06-04T08:23:06;1.00;;;0.90;;
17592;SDS011;8915;51.760;14.300;2023-06-04T08:25:32;3.43;;;1.10;;
17592;SDS011;8915;51.760;14.300;2023-06-04T08:27:58;1.63;;;1.00;;
17592;SDS011;8915;51.760;14.300;2023-06-04T08:30:25;1.70;;;1.00;;
17592;SDS011;8915;51.760;14.300;2023-06-04T08:32:53;1.03;;;0.80;;
17592;SDS011;8915;51.760;14.300;2023-06-04T08:35:20;3.17;;;0.97;;
17592;SDS011;8915;51.760;14.300;2023-06-04T08:37:46;1.43;;;0.97;;
17592;SDS011;8915;51.760;14.300;2023-06-04T08:40:13;2.57;;;1.00;;
17592;SDS011;8915;51.760;14.300;2023-06-04T08:42:40;1.10;;;0.80;;
17592;SDS011;8915;51.760;14.300;2023-06-04T08:45:10;2.83;;;0.90;;
17592;SDS011;8915;51.760;14.300;2023-06-04T08:47:38;1.20;;;0.80;;
17592;SDS011;8915;51.760;14.300;2023-06-04T08:50:10;2.53;;;1.20;;
17592;SDS011;8915;51.760;14.300;2023-06-04T08:52:38;2.77;;;0.90;;
17592;SDS011;8915;51.760;14.300;2023-06-04T08:55:06;2.20;;;0.80;;
17592;SDS011;8915;51.760;14.300;2023-06-04T08:57:34;3.13;;;0.80;;
17592;SDS011;8915;51.760;14.300;2023-06-04T09:00:01;2.33;;;0.80;;
17592;SDS011;8915;51.760;14.300;2023-06-04T09:02:28;0.70;;;0.70;;
17592;SDS011;8915;51.760;14.300;2023-06-04T09:04:55;1.27;;;0.90;;
17592;SDS011;8915;51.760;14.300;2023-06-04T09:07:23;1.17;;;1.00;;
17592;SDS011;8915;51.760;14.300;2023-06-04T09:09:51;2.47;;;0.83;;
17592;SDS011;8915;51.760;14.300;2023-06-04T09:12:18;1.10;;;0.80;;
17592;SDS011;8915;51.760;14.300;2023-06-04T09:14:49;1.50;;;0.70;;
17592;SDS011;8915;51.760;14.300;2023-06-04T09:17:20;1.27;;;0.80;;
17592;SDS011;8915;51.760;14.300;2023-06-04T09:19:48;0.90;;;0.77;;
17592;SDS011;8915;51.760;14.300;2023-06-04T09:22:15;0.70;;;0.70;;
17592;SDS011;8915;51.760;14.300;2023-06-04T09:24:43;3.77;;;0.93;;
17592;SDS011;8915;51.760;14.300;2023-06-04T09:27:12;2.47;;;1.03;;
17592;SDS011;8915;51.760;14.300;2023-06-04T09:29:40;2.00;;;0.63;;
17592;SDS011;8915;51.760;14.300;2023-06-04T09:32:06;2.07;;;0.80;;
17592;SDS011;8915;51.760;14.300;2023-06-04T09:34:33;1.50;;;0.80;;
17592;SDS011;8915;51.760;14.300;2023-06-04T09:37:00;2.33;;;1.00;;
17592;SDS011;8915;51.760;14.300;2023-06-04T09:39:26;3.30;;;1.00;;
17592;SDS011;8915;51.760;14.300;2023-06-04T09:42:00;1.50;;;0.80;;
17592;SDS011;8915;51.760;14.300;2023-06-04T09:44:29;0.90;;;0.80;;
17592;SDS011;8915;51.760;14.300;2023-06-04T09:46:56;1.97;;;0.93;;
17592;SDS011;8915;51.760;14.300;2023-06-04T09:49:23;0.67;;;0.60;;
17592;SDS011;8915;51.760;14.300;2023-06-04T09:51:50;0.70;;;0.60;;
17592;SDS011;8915;51.760;14.300;2023-06-04T09:54:16;1.60;;;0.90;;
17592;SDS011;8915;51.760;14.300;2023-06-04T09:56:43;1.20;;;0.83;;
17592;SDS011;8915;51.760;14.300;2023-06-04T09:59:11;2.10;;;0.80;;
17592;SDS011;8915;51.760;14.300;2023-06-04T10:01:39;1.13;;;0.87;;
17592;SDS011;8915;51.760;14.300;2023-06-04T10:04:08;2.10;;;0.80;;
17592;SDS011;8915;51.760;14.300;2023-06-04T10:06:36;1.40;;;0.93;;
17592;SDS011;8915;51.760;14.300;2023-06-04T10:09:06;0.90;;;0.70;;
17592;SDS011;8915;51.760;14.300;2023-06-04T10:11:34;1.17;;;1.07;;
17592;SDS011;8915;51.760;14.300;2023-06-04T10:14:02;1.97;;;0.80;;
17592;SDS011;8915;51.760;14.300;2023-06-04T10:16:33;1.10;;;0.80;;
17592;SDS011;8915;51.760;14.300;2023-06-04T10:19:04;2.00;;;0.93;;
17592;SDS011;8915;51.760;14.300;2023-06-04T10:21:31;1.00;;;0.80;;
17592;SDS011;8915;51.760;14.300;2023-06-04T10:23:59;2.00;;;0.87;;
17592;SDS011;8915;51.760;14.300;2023-06-04T10:26:26;1.73;;;1.00;;
17592;SDS011;8915;51.760;14.300;2023-06-04T10:28:53;1.70;;;0.77;;
17592;SDS011;8915;51.760;14.300;2023-06-04T10:31:19;1.83;;;0.87;;
17592;SDS011;8915;51.760;14.300;2023-06-04T10:33:47;2.20;;;0.80;;
17592;SDS011;8915;51.760;14.300;2023-06-04T10:36:17;1.50;;;0.87;;
17592;SDS011;8915;51.760;14.300;2023-06-04T10:38:48;0.70;;;0.63;;
17592;SDS011;8915;51.760;14.300;2023-06-04T10:41:16;0.77;;;0.77;;
17592;SDS011;8915;51.760;14.300;2023-06-04T10:43:44;1.43;;;0.50;;
17592;SDS011;8915;51.760;14.300;2023-06-04T10:46:11;1.33;;;0.90;;
17592;SDS011;8915;51.760;14.300;2023-06-04T10:48:44;1.03;;;0.67;;
17592;SDS011;8915;51.760;14.300;2023-06-04T10:51:13;1.87;;;1.03;;
17592;SDS011;8915;51.760;14.300;2023-06-04T10:53:40;1.77;;;1.00;;
17592;SDS011;8915;51.760;14.300;2023-06-04T10:56:06;1.37;;;0.90;;
17592;SDS011;8915;51.760;14.300;2023-06-04T10:58:33;1.77;;;0.90;;
17592;SDS011;8915;51.760;14.300;2023-06-04T11:01:00;1.93;;;0.90;;
17592;SDS011;8915;51.760;14.300;2023-06-04T11:03:34;1.23;;;0.90;;
17592;SDS011;8915;51.760;14.300;2023-06-04T11:06:13;1.13;;;0.83;;
17592;SDS011;8915;51.760;14.300;2023-06-04T11:08:42;1.23;;;0.90;;
17592;SDS011;8915;51.760;14.300;2023-06-04T11:11:11;1.63;;;0.83;;
17592;SDS011;8915;51.760;14.300;2023-06-04T11:13:38;1.50;;;0.83;;
17592;SDS011;8915;51.760;14.300;2023-06-04T11:16:13;1.20;;;1.10;;
17592;SDS011;8915;51.760;14.300;2023-06-04T11:18:40;5.63;;;0.73;;
17592;SDS011;8915;51.760;14.300;2023-06-04T11:21:08;1.27;;;0.93;;
17592;SDS011;8915;51.760;14.300;2023-06-04T11:23:36;1.13;;;0.83;;
17592;SDS011;8915;51.760;14.300;2023-06-04T11:26:02;1.37;;;0.90;;
17592;SDS011;8915;51.760;14.300;2023-06-04T11:28:29;1.17;;;1.00;;
17592;SDS011;8915;51.760;14.300;2023-06-04T11:30:56;4.40;;;0.93;;
17592;SDS011;8915;51.760;14.300;2023-06-04T11:33:23;1.57;;;1.10;;
17592;SDS011;8915;51.760;14.300;2023-06-04T11:35:49;1.87;;;1.00;;
17592;SDS011;8915;51.760;14.300;2023-06-04T11:38:17;3.53;;;0.80;;
17592;SDS011;8915;51.760;14.300;2023-06-04T11:40:43;1.10;;;1.00;;
17592;SDS011;8915;51.760;14.300;2023-06-04T11:43:10;1.40;;;0.87;;
17592;SDS011;8915;51.760;14.300;2023-06-04T11:45:37;1.43;;;0.90;;
17592;SDS011;8915;51.760;14.300;2023-06-04T11:48:04;1.20;;;0.90;;
17592;SDS011;8915;51.760;14.300;2023-06-04T11:50:31;3.43;;;0.90;;
17592;SDS011;8915;51.760;14.300;2023-06-04T11:52:58;1.60;;;1.20;;
17592;SDS011;8915;51.760;14.300;2023-06-04T11:55:26;1.00;;;0.90;;
17592;SDS011;8915;51.760;14.300;2023-06-04T11:57:53;1.60;;;1.00;;
17592;SDS011;8915;51.760;14.300;2023-06-04T12:00:19;1.93;;;1.20;;
17592;SDS011;8915;51.760;14.300;2023-06-04T12:02:50;2.67;;;0.90;;
17592;SDS011;8915;51.760;14.300;2023-06-04T12:05:18;3.70;;;1.07;;
17592;SDS011;8915;51.760;14.300;2023-06-04T12:07:46;3.17;;;0.90;;
17592;SDS011;8915;51.760;14.300;2023-06-04T12:10:15;1.73;;;1.10;;
17592;SDS011;8915;51.760;14.300;2023-06-04T12:12:43;1.90;;;1.47;;
17592;SDS011;8915;51.760;14.300;2023-06-04T12:15:10;1.50;;;1.00;;
17592;SDS011;8915;51.760;14.300;2023-06-04T12:17:36;1.87;;;1.00;;
17592;SDS011;8915;51.760;14.300;2023-06-04T12:20:03;1.10;;;0.80;;
17592;SDS011;8915;51.760;14.300;2023-06-04T12:22:31;2.97;;;1.13;;
17592;SDS011;8915;51.760;14.300;2023-06-04T12:24:57;1.47;;;1.00;;
17592;SDS011;8915;51.760;14.300;2023-06-04T12:27:27;1.00;;;0.90;;
17592;SDS011;8915;51.760;14.300;2023-06-04T12:29:56;2.30;;;1.00;;
17592;SDS011;8915;51.760;14.300;2023-06-04T12:32:23;2.17;;;1.00;;
17592;SDS011;8915;51.760;14.300;2023-06-04T12:34:50;1.33;;;1.10;;
17592;SDS011;8915;51.760;14.300;2023-06-04T12:37:16;2.20;;;1.20;;
17592;SDS011;8915;51.760;14.300;2023-06-04T12:39:42;1.30;;;1.13;;
17592;SDS011;8915;51.760;14.300;2023-06-04T12:42:09;2.37;;;1.10;;
17592;SDS011;8915;51.760;14.300;2023-06-04T12:44:35;3.07;;;1.07;;
17592;SDS011;8915;51.760;14.300;2023-06-04T12:47:03;1.77;;;1.20;;
17592;SDS011;8915;51.760;14.300;2023-06-04T12:49:30;1.70;;;1.00;;
17592;SDS011;8915;51.760;14.300;2023-06-04T12:51:57;1.27;;;0.80;;
17592;SDS011;8915;51.760;14.300;2023-06-04T12:54:23;1.75;;;1.10;;
17592;SDS011;8915;51.760;14.300;2023-06-04T12:56:50;1.70;;;1.20;;
17592;SDS011;8915;51.760;14.300;2023-06-04T12:59:16;1.50;;;0.95;;
17592;SDS011;8915;51.760;14.300;2023-06-04T13:01:42;2.78;;;1.17;;
17592;SDS011;8915;51.760;14.300;2023-06-04T13:04:10;2.95;;;1.10;;
17592;SDS011;8915;51.760;14.300;2023-06-04T13:06:37;3.80;;;1.10;;
17592;SDS011;8915;51.760;14.300;2023-06-04T13:09:03;2.10;;;0.93;;
17592;SDS011;8915;51.760;14.300;2023-06-04T13:11:34;1.55;;;0.90;;
17592;SDS011;8915;51.760;14.300;2023-06-04T13:14:00;2.17;;;1.13;;
17592;SDS011;8915;51.760;14.300;2023-06-04T13:16:27;1.30;;;1.10;;
17592;SDS011;8915;51.760;14.300;2023-06-04T13:18:53;2.05;;;0.95;;
17592;SDS011;8915;51.760;14.300;2023-06-04T13:21:21;1.25;;;0.90;;
17592;SDS011;8915;51.760;14.300;2023-06-04T13:23:47;1.05;;;0.95;;
17592;SDS011;8915;51.760;14.300;2023-06-04T13:26:14;4.97;;;1.05;;
17592;SDS011;8915;51.760;14.300;2023-06-04T13:28:41;1.10;;;1.00;;
17592;SDS011;8915;51.760;14.300;2023-06-04T13:31:07;2.00;;;1.00;;
17592;SDS011;8915;51.760;14.300;2023-06-04T13:33:33;1.40;;;1.00;;
17592;SDS011;8915;51.760;14.300;2023-06-04T13:36:00;1.20;;;1.00;;
17592;SDS011;8915;51.760;14.300;2023-06-04T13:38:27;1.10;;;1.00;;
17592;SDS011;8915;51.760;14.300;2023-06-04T13:40:54;3.00;;;1.13;;
17592;SDS011;8915;51.760;14.300;2023-06-04T13:43:20;1.85;;;0.90;;
17592;SDS011;8915;51.760;14.300;2023-06-04T13:45:46;2.92;;;0.90;;
17592;SDS011;8915;51.760;14.300;2023-06-04T13:48:13;2.67;;;1.00;;
17592;SDS011;8915;51.760;14.300;2023-06-04T13:50:40;2.50;;;1.20;;
17592;SDS011;8915;51.760;14.300;2023-06-04T13:53:07;1.80;;;0.85;;
17592;SDS011;8915;51.760;14.300;2023-06-04T13:55:35;1.00;;;0.95;;
17592;SDS011;8915;51.760;14.300;2023-06-04T13:58:01;1.45;;;0.93;;
17592;SDS011;8915;51.760;14.300;2023-06-04T14:00:28;1.10;;;0.98;;
17592;SDS011;8915;51.760;14.300;2023-06-04T14:02:55;2.50;;;0.93;;
17592;SDS011;8915;51.760;14.300;2023-06-04T14:05:24;1.58;;;1.08;;
17592;SDS011;8915;51.760;14.300;2023-06-04T14:07:52;1.55;;;0.95;;
17592;SDS011;8915;51.760;14.300;2023-06-04T14:10:19;4.47;;;1.20;;
17592;SDS011;8915;51.760;14.300;2023-06-04T14:12:46;1.70;;;1.10;;
17592;SDS011;8915;51.760;14.300;2023-06-04T14:15:13;2.13;;;1.05;;
17592;SDS011;8915;51.760;14.300;2023-06-04T14:17:39;1.67;;;1.05;;
17592;SDS011;8915;51.760;14.300;2023-06-04T14:20:06;1.70;;;1.10;;
17592;SDS011;8915;51.760;14.300;2023-06-04T14:22:33;1.20;;;1.02;;
17592;SDS011;8915;51.760;14.300;2023-06-04T14:25:01;0.95;;;0.88;;
17592;SDS011;8915;51.760;14.300;2023-06-04T14:27:27;1.55;;;1.20;;
17592;SDS011;8915;51.760;14.300;2023-06-04T14:29:55;1.42;;;0.85;;
17592;SDS011;8915;51.760;14.300;2023-06-04T14:32:22;2.60;;;1.20;;
17592;SDS011;8915;51.760;14.300;2023-06-04T14:34:48;1.10;;;1.00;;
17592;SDS011;8915;51.760;14.300;2023-06-04T14:37:15;1.45;;;1.00;;
17592;SDS011;8915;51.760;14.300;2023-06-04T14:39:41;2.92;;;1.23;;
17592;SDS011;8915;51.760;14.300;2023-06-04T14:42:08;5.95;;;1.50;;
17592;SDS011;8915;51.760;14.300;2023-06-04T14:44:34;1.95;;;1.02;;
17592;SDS011;8915;51.760;14.300;2023-06-04T14:47:02;2.35;;;1.10;;
17592;SDS011;8915;51.760;14.300;2023-06-04T14:49:28;2.25;;;1.00;;
17592;SDS011;8915;51.760;14.300;2023-06-04T14:51:55;1.35;;;1.15;;